createdAt,value
2016-08-15T00:00:21.191Z,19.31
2016-08-15T00:05:19.242Z,19.30
2016-08-15T00:10:16.835Z,19.27
2016-08-15T00:15:14.435Z,19.27
2016-08-15T00:20:12.012Z,19.22
2016-08-15T00:25:09.844Z,19.18
2016-08-15T00:30:07.536Z,19.16
2016-08-15T00:35:05.177Z,19.15
2016-08-15T00:40:02.871Z,19.21
2016-08-15T00:45:00.675Z,19.21
2016-08-15T00:49:58.351Z,19.12
2016-08-15T00:54:55.954Z,18.99
2016-08-15T00:59:53.657Z,18.99
2016-08-15T01:04:51.514Z,19.12
2016-08-15T01:09:49.243Z,18.99
2016-08-15T01:14:46.843Z,19.14
2016-08-15T01:19:44.739Z,19.21
2016-08-15T01:24:42.499Z,19.14
2016-08-15T01:29:40.491Z,19.18
2016-08-15T01:34:38.170Z,19.02
2016-08-15T01:39:35.925Z,19.07
2016-08-15T01:44:33.769Z,18.99
2016-08-15T01:49:31.318Z,18.95
2016-08-15T01:54:29.067Z,19.04
2016-08-15T01:59:26.754Z,18.90
2016-08-15T02:04:24.378Z,18.86
2016-08-15T02:09:21.980Z,18.88
2016-08-15T02:14:19.580Z,18.99
2016-08-15T02:19:17.355Z,18.98
2016-08-15T02:24:15.192Z,19.02
2016-08-15T02:29:12.820Z,18.89
2016-08-15T02:34:10.428Z,18.92
2016-08-15T02:39:08.116Z,18.86
2016-08-15T02:44:05.937Z,18.81
2016-08-15T02:49:03.714Z,18.84
2016-08-15T02:54:01.501Z,18.84
2016-08-15T02:58:59.213Z,18.95
2016-08-15T03:03:56.756Z,18.75
2016-08-15T03:08:54.389Z,18.71
2016-08-15T03:13:52.000Z,18.78
2016-08-15T03:18:49.997Z,18.81
2016-08-15T03:23:47.576Z,18.86
2016-08-15T03:28:45.370Z,18.83
2016-08-15T03:33:43.377Z,18.77
2016-08-15T03:38:41.216Z,18.74
2016-08-15T03:43:38.938Z,18.84
2016-08-15T03:48:36.700Z,18.77
2016-08-15T03:53:34.564Z,18.65
2016-08-15T03:58:32.249Z,18.77
2016-08-15T04:03:30.244Z,18.86
2016-08-15T04:08:27.894Z,18.75
2016-08-15T04:13:25.562Z,18.77
2016-08-15T04:18:23.149Z,18.84
2016-08-15T04:23:20.607Z,18.77
2016-08-15T04:28:18.391Z,18.65
2016-08-15T04:33:16.119Z,18.56
2016-08-15T04:38:14.198Z,18.53
2016-08-15T04:43:11.847Z,18.49
2016-08-15T04:48:09.644Z,18.58
2016-08-15T04:53:07.416Z,18.62
2016-08-15T04:58:05.032Z,18.55
2016-08-15T05:03:02.663Z,18.55
2016-08-15T05:08:00.444Z,18.47
2016-08-15T05:12:58.246Z,18.60
2016-08-15T05:17:55.935Z,18.66
2016-08-15T05:22:53.686Z,18.78
2016-08-15T05:27:51.465Z,18.78
2016-08-15T05:32:49.457Z,18.77
2016-08-15T05:37:47.011Z,18.89
2016-08-15T05:42:44.908Z,18.89
2016-08-15T05:47:42.780Z,18.90
2016-08-15T05:52:40.626Z,19.09
2016-08-15T05:57:38.184Z,19.08
2016-08-15T06:02:35.994Z,19.16
2016-08-15T06:07:33.727Z,19.47
2016-08-15T06:12:31.584Z,19.63
2016-08-15T06:17:29.289Z,19.84
2016-08-15T06:22:26.978Z,19.71
2016-08-15T06:27:24.679Z,20.02
2016-08-15T06:32:22.445Z,20.52
2016-08-15T06:37:20.262Z,20.31
2016-08-15T06:42:18.122Z,20.04
2016-08-15T06:47:15.962Z,20.03
2016-08-15T06:52:13.548Z,19.99
2016-08-15T06:57:11.038Z,19.88
2016-08-15T07:02:08.740Z,19.89
2016-08-15T07:07:06.354Z,19.81
2016-08-15T07:12:04.253Z,19.85
2016-08-15T07:17:01.977Z,19.91
2016-08-15T07:21:59.657Z,20.09
2016-08-15T07:26:57.597Z,20.24
2016-08-15T07:31:55.119Z,20.24
2016-08-15T07:36:53.136Z,20.18
2016-08-15T07:41:50.641Z,20.16
2016-08-15T07:46:48.817Z,20.16
2016-08-15T07:51:46.306Z,20.31
2016-08-15T07:56:44.243Z,20.41
2016-08-15T08:01:42.162Z,20.52
2016-08-15T08:06:39.896Z,20.84
2016-08-15T08:11:37.890Z,22.26
2016-08-15T08:16:36.371Z,23.36
2016-08-15T08:21:34.484Z,23.06
2016-08-15T08:26:32.736Z,23.25
2016-08-15T08:31:30.681Z,23.36
2016-08-15T08:36:28.755Z,23.20
2016-08-15T08:41:26.593Z,22.81
2016-08-15T08:46:24.206Z,22.98
2016-08-15T08:51:22.141Z,22.94
2016-08-15T08:56:19.454Z,22.59
2016-08-15T09:01:16.933Z,22.53
2016-08-15T09:06:14.356Z,22.43
2016-08-15T09:11:11.910Z,22.53
2016-08-15T09:16:09.613Z,22.59
2016-08-15T09:21:07.597Z,22.69
2016-08-15T09:26:05.259Z,22.78
2016-08-15T09:31:03.008Z,22.70
2016-08-15T09:36:00.738Z,22.65
2016-08-15T09:40:58.485Z,22.62
2016-08-15T09:45:56.386Z,22.57
2016-08-15T09:50:53.972Z,22.66
2016-08-15T09:55:51.449Z,22.69
2016-08-15T10:00:48.956Z,22.80
2016-08-15T10:05:46.977Z,22.68
2016-08-15T10:10:44.566Z,22.78
2016-08-15T10:15:42.372Z,22.85
2016-08-15T10:20:40.252Z,23.02
2016-08-15T10:25:37.806Z,23.09
2016-08-15T10:30:35.590Z,23.08
2016-08-15T10:35:33.340Z,23.02
2016-08-15T10:40:30.993Z,22.94
2016-08-15T10:45:28.590Z,22.90
2016-08-15T10:50:26.333Z,22.88
2016-08-15T10:55:23.919Z,22.80
2016-08-15T11:00:21.508Z,22.78
2016-08-15T11:05:19.102Z,22.91
2016-08-15T11:10:16.835Z,22.87
2016-08-15T11:15:14.393Z,23.13
2016-08-15T11:20:12.063Z,23.25
2016-08-15T11:25:09.752Z,23.23
2016-08-15T11:30:07.380Z,23.18
2016-08-15T11:35:05.050Z,23.08
2016-08-15T11:40:02.503Z,23.12
2016-08-15T11:45:00.095Z,23.12
2016-08-15T11:49:57.812Z,23.18
2016-08-15T11:54:55.687Z,23.17
2016-08-15T11:59:53.196Z,23.24
2016-08-15T12:04:51.064Z,23.31
2016-08-15T12:09:48.865Z,23.54
2016-08-15T12:14:46.523Z,23.50
2016-08-15T12:19:44.219Z,23.58
2016-08-15T12:24:41.978Z,23.48
2016-08-15T12:29:39.681Z,23.21
2016-08-15T12:34:37.231Z,23.06
2016-08-15T12:39:34.872Z,23.00
2016-08-15T12:44:32.469Z,22.90
2016-08-15T12:49:30.008Z,22.83
2016-08-15T12:54:27.597Z,22.90
2016-08-15T12:59:25.265Z,23.10
2016-08-15T13:04:22.878Z,22.99
2016-08-15T13:09:20.438Z,22.93
2016-08-15T13:14:18.180Z,22.78
2016-08-15T13:19:16.682Z,22.83
2016-08-15T13:24:14.041Z,23.03
2016-08-15T13:29:11.807Z,23.06
2016-08-15T13:34:09.423Z,23.05
2016-08-15T13:39:07.062Z,23.08
2016-08-15T13:44:04.558Z,23.06
2016-08-15T13:49:02.106Z,22.88
2016-08-15T13:53:59.605Z,23.03
2016-08-15T13:58:57.198Z,22.98
2016-08-15T14:03:54.778Z,23.03
2016-08-15T14:08:53.071Z,23.17
2016-08-15T14:13:50.978Z,23.23
2016-08-15T14:18:48.484Z,22.94
2016-08-15T14:23:45.956Z,22.96
2016-08-15T14:28:43.713Z,22.83
2016-08-15T14:33:41.386Z,22.90
2016-08-15T14:38:38.997Z,22.81
2016-08-15T14:43:37.096Z,22.80
2016-08-15T14:48:34.637Z,22.83
2016-08-15T14:53:32.046Z,22.83
2016-08-15T14:58:29.672Z,23.06
2016-08-15T15:03:27.261Z,23.09
2016-08-15T15:08:25.701Z,23.28
2016-08-15T15:13:23.165Z,23.25
2016-08-15T15:18:20.755Z,23.32
2016-08-15T15:23:18.430Z,23.03
2016-08-15T15:28:16.088Z,22.99
2016-08-15T15:33:13.779Z,23.05
2016-08-15T15:38:11.361Z,23.02
2016-08-15T15:43:09.145Z,22.85
2016-08-15T15:48:06.615Z,22.80
2016-08-15T15:53:04.282Z,22.81
2016-08-15T15:58:01.882Z,22.87
2016-08-15T16:02:59.595Z,22.90
2016-08-15T16:07:57.276Z,22.88
2016-08-15T16:12:54.750Z,22.80
2016-08-15T16:17:52.303Z,22.81
2016-08-15T16:22:49.928Z,22.88
2016-08-15T16:27:47.724Z,22.81
2016-08-15T16:32:45.445Z,22.72
2016-08-15T16:37:43.016Z,22.62
2016-08-15T16:42:40.879Z,22.60
2016-08-15T16:47:38.352Z,22.54
2016-08-15T16:52:36.158Z,22.54
2016-08-15T16:57:33.634Z,22.33
2016-08-15T17:02:31.276Z,22.53
2016-08-15T17:07:29.126Z,22.81
2016-08-15T17:12:26.857Z,22.94
2016-08-15T17:17:24.548Z,23.12
2016-08-15T17:22:22.220Z,23.21
2016-08-15T17:27:19.830Z,23.36
2016-08-15T17:32:17.414Z,23.03
2016-08-15T17:37:15.278Z,23.00
2016-08-15T17:42:12.948Z,22.83
2016-08-15T17:47:10.565Z,22.72
2016-08-15T17:52:08.167Z,22.48
2016-08-15T17:57:05.938Z,22.33
2016-08-15T18:02:03.311Z,22.20
2016-08-15T18:07:00.795Z,22.11
2016-08-15T18:11:58.400Z,22.15
2016-08-15T18:16:56.016Z,21.99
2016-08-15T18:21:53.523Z,21.95
2016-08-15T18:26:51.109Z,21.87
2016-08-15T18:31:48.806Z,21.75
2016-08-15T18:36:46.558Z,21.66
2016-08-15T18:41:44.082Z,21.51
2016-08-15T18:46:41.575Z,21.37
2016-08-15T18:51:39.339Z,21.30
2016-08-15T18:56:36.612Z,21.17
2016-08-15T19:01:34.142Z,21.25
2016-08-15T19:06:31.724Z,21.05
2016-08-15T19:11:29.364Z,21.20
2016-08-15T19:16:27.286Z,21.51
2016-08-15T19:21:24.783Z,21.61
2016-08-15T19:26:22.321Z,21.69
2016-08-15T19:31:19.734Z,21.69
2016-08-15T19:36:17.306Z,21.72
2016-08-15T19:41:14.960Z,21.73
2016-08-15T19:46:12.613Z,21.69
2016-08-15T19:51:10.137Z,21.67
2016-08-15T19:56:07.956Z,21.67
2016-08-15T20:01:05.607Z,21.70
2016-08-15T20:06:03.623Z,21.55
2016-08-15T20:11:01.236Z,21.58
2016-08-15T20:15:58.654Z,21.57
2016-08-15T20:20:56.239Z,21.69
2016-08-15T20:25:53.929Z,21.77
2016-08-15T20:30:51.703Z,21.87
2016-08-15T20:35:49.315Z,21.89
2016-08-15T20:40:46.960Z,21.93
2016-08-15T20:45:44.675Z,21.98
2016-08-15T20:50:42.354Z,21.92
2016-08-15T20:55:40.153Z,21.89
2016-08-15T21:00:37.624Z,21.92
2016-08-15T21:05:35.266Z,21.89
2016-08-15T21:10:32.968Z,21.83
2016-08-15T21:15:30.504Z,21.87
2016-08-15T21:20:27.976Z,21.85
2016-08-15T21:25:25.433Z,21.79
2016-08-15T21:30:23.146Z,21.83
2016-08-15T21:35:20.871Z,21.75
2016-08-15T21:40:18.774Z,21.79
2016-08-15T21:45:16.444Z,21.76
2016-08-15T21:50:14.075Z,21.72
2016-08-15T21:55:11.704Z,21.82
2016-08-15T22:00:09.298Z,21.85
2016-08-15T22:05:07.151Z,21.77
2016-08-15T22:10:04.757Z,21.77
2016-08-15T22:15:02.703Z,21.83
2016-08-15T22:20:00.290Z,21.69
2016-08-15T22:24:58.068Z,21.64
2016-08-15T22:29:55.719Z,21.73
2016-08-15T22:34:53.441Z,21.64
2016-08-15T22:39:51.291Z,21.58
2016-08-15T22:44:49.059Z,21.66
2016-08-15T22:49:46.702Z,21.61
2016-08-15T22:54:44.599Z,21.70
2016-08-15T22:59:42.132Z,21.70
2016-08-15T23:04:39.652Z,21.75
2016-08-15T23:09:37.295Z,21.69
2016-08-15T23:14:34.974Z,21.70
2016-08-15T23:19:32.474Z,21.69
2016-08-15T23:24:30.379Z,21.70
2016-08-15T23:29:28.221Z,21.62
2016-08-15T23:34:26.022Z,21.70
2016-08-15T23:39:23.909Z,21.67
2016-08-15T23:44:21.503Z,21.70
2016-08-15T23:49:19.124Z,21.64
2016-08-15T23:54:16.620Z,21.57
2016-08-15T23:59:14.344Z,21.55
